Capivari, Brazil
Current Conditions -  °F | °C
As of 9:00 AM on Monday 20 Oct 2014 (Local Time) from SBLS Reporting Station
Broken Clouds Broken Clouds  
Wind Chill: 81°   Ceiling: 10000
Heat Index: 81°   Visibility: 6mi
Dew Point: 59°   Wind: 20mph
Humidity: 48%   Direction: 140°SE
Pressure: 30.06"   Gusts: NA
Location:  18.43°S, 43.42°W
Report Text: SBLS 201200Z 14017KT 9000 FEW040 BKN100 27/15 Q1018
Loading
Personal Weather Stations






























Interactive Weather Map
Tropical Storm Tracking
New forecast layout! Learn more

10-Day Weather Forecast

Advertisements
Track Severe Weather on mobile